createdAt,value
2023-03-20T00:01:26.488Z,145721.22
2023-03-20T00:03:53.728Z,145689.56
2023-03-20T00:06:26.235Z,145726.09
2023-03-20T00:08:54.744Z,145700.53
2023-03-20T00:11:31.039Z,145728.50
2023-03-20T00:13:59.754Z,145711.50
2023-03-20T00:16:33.247Z,145633.66
2023-03-20T00:19:00.330Z,145710.25
2023-03-20T00:21:27.411Z,145741.84
2023-03-20T00:23:55.542Z,145738.19
2023-03-20T00:26:28.181Z,145749.16
2023-03-20T00:28:56.450Z,145733.34
2023-03-20T00:31:32.103Z,145726.09
2023-03-20T00:34:02.165Z,145726.09
2023-03-20T00:36:29.784Z,145745.50
2023-03-20T00:38:57.941Z,145743.06
2023-03-20T00:41:26.652Z,145728.50
2023-03-20T00:43:59.639Z,145724.84
2023-03-20T00:46:27.568Z,145701.75
2023-03-20T00:48:55.884Z,145715.13
2023-03-20T00:51:23.120Z,145703.00
2023-03-20T00:53:52.123Z,145723.63
2023-03-20T00:56:32.258Z,145662.84
2023-03-20T00:59:01.599Z,145716.38
2023-03-20T01:01:30.399Z,145701.75
2023-03-20T01:03:58.751Z,145701.75
2023-03-20T01:06:25.915Z,145693.22
2023-03-20T01:08:52.969Z,145710.25
2023-03-20T01:11:23.419Z,145712.72
2023-03-20T01:13:52.243Z,145689.56
2023-03-20T01:16:22.216Z,145719.97
2023-03-20T01:18:50.813Z,145653.13
2023-03-20T01:21:19.211Z,145746.72
2023-03-20T01:23:47.470Z,145694.44
2023-03-20T01:26:36.103Z,145675.00
2023-03-20T01:29:04.911Z,145705.41
2023-03-20T01:31:33.538Z,145716.38
2023-03-20T01:34:00.924Z,145675.00
2023-03-20T01:36:27.992Z,145684.72
2023-03-20T01:38:57.727Z,145691.97
2023-03-20T01:41:27.501Z,145696.84
2023-03-20T01:43:54.592Z,145698.09
2023-03-20T01:46:31.760Z,145682.25
2023-03-20T01:49:20.047Z,145691.97
2023-03-20T01:51:50.297Z,145670.09
2023-03-20T01:54:35.469Z,145650.66
2023-03-20T01:57:14.914Z,145655.53
2023-03-20T01:59:47.504Z,145611.81
2023-03-20T02:02:19.434Z,145614.22
2023-03-20T02:04:50.404Z,145577.78
2023-03-20T02:07:21.053Z,145594.78
2023-03-20T02:09:57.891Z,145588.75
2023-03-20T02:12:36.561Z,145572.91
2023-03-20T02:15:07.116Z,145531.63
2023-03-20T02:17:54.492Z,145511.00
2023-03-20T02:20:44.353Z,145495.19
2023-03-20T02:23:23.222Z,145462.41
2023-03-20T02:25:58.728Z,145453.91
2023-03-20T02:28:48.378Z,145446.59
2023-03-20T02:31:36.884Z,145439.34
2023-03-20T02:34:25.905Z,145385.91
2023-03-20T02:37:18.166Z,145368.91
2023-03-20T02:40:25.097Z,145345.84
2023-03-20T02:43:02.388Z,145300.91
2023-03-20T02:45:38.450Z,145291.22
2023-03-20T02:48:31.271Z,145291.22
2023-03-20T02:51:19.610Z,145279.09
2023-03-20T02:53:54.304Z,145274.25
2023-03-20T02:56:42.157Z,145214.69
2023-03-20T02:59:09.217Z,145269.34
2023-03-20T03:01:42.951Z,145276.66
2023-03-20T03:04:16.288Z,145269.34
2023-03-20T03:06:47.458Z,145237.81
2023-03-20T03:09:30.363Z,145249.91
2023-03-20T03:12:10.196Z,145293.66
2023-03-20T03:14:43.025Z,145275.44
2023-03-20T03:17:16.985Z,145237.81
2023-03-20T03:19:49.181Z,145220.78
2023-03-20T03:22:16.842Z,145279.09
2023-03-20T03:24:47.553Z,145288.81
2023-03-20T03:27:32.545Z,145286.34
2023-03-20T03:30:03.902Z,145200.16
2023-03-20T03:32:35.344Z,145273.00
2023-03-20T03:35:05.446Z,145274.25
2023-03-20T03:37:56.285Z,145288.81
2023-03-20T03:40:47.176Z,145248.69
2023-03-20T03:43:23.309Z,145236.56
2023-03-20T03:46:09.379Z,145235.34
2023-03-20T03:48:58.438Z,145237.81
2023-03-20T03:51:30.904Z,145237.81
2023-03-20T03:54:13.183Z,145259.66
2023-03-20T03:56:44.403Z,145223.19
2023-03-20T03:59:21.611Z,145232.91
2023-03-20T04:01:52.434Z,145249.91
2023-03-20T04:04:22.033Z,145230.50
2023-03-20T04:06:49.217Z,145138.31
2023-03-20T04:09:16.408Z,145235.34
2023-03-20T04:11:46.245Z,145203.78
2023-03-20T04:14:13.789Z,145232.91
2023-03-20T04:16:42.242Z,145213.50
2023-03-20T04:19:09.457Z,145179.53
2023-03-20T04:21:36.536Z,145240.19
2023-03-20T04:24:03.987Z,145234.16
2023-03-20T04:26:31.889Z,145224.44
2023-03-20T04:28:59.113Z,145242.66
2023-03-20T04:31:52.568Z,145232.91
2023-03-20T04:34:33.181Z,145218.34
2023-03-20T04:37:21.694Z,145191.66
2023-03-20T04:39:56.569Z,145189.25
2023-03-20T04:42:23.706Z,145235.34
2023-03-20T04:44:55.880Z,145220.78
2023-03-20T04:47:24.128Z,145207.44
2023-03-20T04:49:51.714Z,145228.06
2023-03-20T04:52:19.333Z,145203.78
2023-03-20T04:54:46.347Z,145206.25
2023-03-20T04:57:13.517Z,145208.66
2023-03-20T04:59:40.642Z,145180.75
2023-03-20T05:02:07.876Z,145203.78
2023-03-20T05:04:35.207Z,145215.94
2023-03-20T05:07:02.804Z,145188.03
2023-03-20T05:09:38.362Z,145152.84
2023-03-20T05:12:07.050Z,145247.50
2023-03-20T05:14:57.236Z,145235.34
2023-03-20T05:17:33.352Z,145205.00
2023-03-20T05:20:29.475Z,145223.19
2023-03-20T05:23:22.671Z,145234.16
2023-03-20T05:25:55.275Z,145230.50
2023-03-20T05:28:37.689Z,145201.41
2023-03-20T05:31:14.027Z,145215.94
2023-03-20T05:34:11.095Z,145206.25
2023-03-20T05:36:44.052Z,145188.03
2023-03-20T05:39:27.000Z,145144.34
2023-03-20T05:42:12.454Z,145200.16
2023-03-20T05:44:58.489Z,145160.09
2023-03-20T05:47:46.069Z,145208.66
2023-03-20T05:50:42.466Z,145177.09
2023-03-20T05:53:37.145Z,145198.94
2023-03-20T05:56:23.153Z,145229.28
2023-03-20T05:59:11.776Z,145217.16
2023-03-20T06:01:59.617Z,145215.94
2023-03-20T06:04:31.665Z,145209.84
2023-03-20T06:07:16.807Z,145237.81
2023-03-20T06:09:49.084Z,145228.06
2023-03-20T06:12:17.098Z,145225.66
2023-03-20T06:14:44.221Z,145185.59
2023-03-20T06:17:12.197Z,145259.66
2023-03-20T06:19:39.350Z,145293.66
2023-03-20T06:22:06.644Z,145281.50
2023-03-20T06:24:34.314Z,145265.75
2023-03-20T06:27:01.652Z,145290.00
2023-03-20T06:29:29.252Z,145225.66
2023-03-20T06:32:09.310Z,145242.66
2023-03-20T06:34:37.477Z,145223.19
2023-03-20T06:37:04.686Z,145249.91
2023-03-20T06:39:31.714Z,145291.22
2023-03-20T06:41:59.117Z,145279.09
2023-03-20T06:44:27.025Z,145305.78
2023-03-20T06:47:10.492Z,145236.56
2023-03-20T06:49:37.869Z,145232.91
2023-03-20T06:52:06.582Z,145266.94
2023-03-20T06:54:34.057Z,145288.81
2023-03-20T06:57:01.081Z,145291.22
2023-03-20T06:59:28.118Z,145321.56
2023-03-20T07:01:58.139Z,145290.00
2023-03-20T07:04:26.284Z,145263.31
2023-03-20T07:06:56.701Z,145256.03
2023-03-20T07:09:24.218Z,145279.09
2023-03-20T07:11:51.285Z,145274.25
2023-03-20T07:14:18.590Z,145269.34
2023-03-20T07:16:51.145Z,145266.94
2023-03-20T07:19:19.381Z,145220.78
2023-03-20T07:21:52.260Z,145328.88
2023-03-20T07:24:19.725Z,145327.63
2023-03-20T07:26:46.996Z,145303.38
2023-03-20T07:29:14.345Z,145372.53
2023-03-20T07:31:42.212Z,145390.75
2023-03-20T07:34:13.369Z,145373.75
2023-03-20T07:36:42.052Z,145349.47
2023-03-20T07:39:10.971Z,145305.78
2023-03-20T07:41:40.147Z,145359.19
2023-03-20T07:44:10.457Z,145384.69
2023-03-20T07:46:49.210Z,145385.91
2023-03-20T07:49:20.215Z,145383.50
2023-03-20T07:51:48.673Z,145366.50
2023-03-20T07:54:16.550Z,145327.63
2023-03-20T07:56:43.667Z,145315.50
2023-03-20T07:59:11.604Z,145334.94
2023-03-20T08:01:38.643Z,145326.41
2023-03-20T08:04:05.942Z,145322.78
2023-03-20T08:06:33.064Z,145354.34
2023-03-20T08:09:00.494Z,145347.09
2023-03-20T08:11:27.656Z,145365.28
2023-03-20T08:13:54.838Z,145368.91
2023-03-20T08:16:21.985Z,145354.34
2023-03-20T08:18:50.724Z,145376.19
2023-03-20T08:21:17.831Z,145408.97
2023-03-20T08:23:44.862Z,145434.47
2023-03-20T08:26:12.553Z,145406.56
2023-03-20T08:28:47.509Z,145412.63
2023-03-20T08:31:17.228Z,145483.03
2023-03-20T08:33:45.750Z,145559.56
2023-03-20T08:36:14.994Z,145483.03
2023-03-20T08:38:42.644Z,145495.19
2023-03-20T08:41:09.768Z,145502.50
2023-03-20T08:43:37.001Z,145461.22
2023-03-20T08:46:04.245Z,145395.63
2023-03-20T08:48:31.447Z,145351.94
2023-03-20T08:50:58.481Z,145331.28
2023-03-20T08:53:25.890Z,145281.50
2023-03-20T08:55:53.931Z,145314.25
2023-03-20T08:58:22.102Z,145390.75
2023-03-20T09:00:49.167Z,145412.63
2023-03-20T09:03:19.086Z,145400.47
2023-03-20T09:05:48.049Z,145389.56
2023-03-20T09:08:15.544Z,145347.09
2023-03-20T09:10:42.688Z,145483.03
2023-03-20T09:13:26.239Z,145501.25
2023-03-20T09:15:56.114Z,145421.13
2023-03-20T09:18:23.395Z,145458.75
2023-03-20T09:20:50.843Z,145500.03
2023-03-20T09:23:18.713Z,145418.69
2023-03-20T09:25:46.968Z,145473.31
2023-03-20T09:28:15.167Z,145513.41
2023-03-20T09:30:43.535Z,145463.63
2023-03-20T09:33:11.345Z,145498.84
2023-03-20T09:35:38.610Z,145502.50
2023-03-20T09:38:06.706Z,145487.88
2023-03-20T09:40:48.789Z,145519.47
2023-03-20T09:43:37.260Z,145575.38
2023-03-20T09:46:17.317Z,145546.19
2023-03-20T09:49:11.454Z,145589.94
2023-03-20T09:51:55.213Z,145650.66
2023-03-20T09:54:25.280Z,145730.94
2023-03-20T09:56:53.897Z,145771.06
2023-03-20T09:59:23.807Z,145735.78
2023-03-20T10:01:54.379Z,145565.66
2023-03-20T10:04:26.702Z,145655.53
2023-03-20T10:06:54.627Z,145755.22
2023-03-20T10:09:24.894Z,145828.16
2023-03-20T10:12:08.225Z,145846.41
2023-03-20T10:14:45.385Z,145888.94
2023-03-20T10:17:24.477Z,145948.50
2023-03-20T10:19:56.847Z,145960.69
2023-03-20T10:22:33.244Z,145944.91
2023-03-20T10:25:19.981Z,145933.94
2023-03-20T10:27:59.960Z,145929.06
2023-03-20T10:30:33.340Z,145930.28
2023-03-20T10:33:18.855Z,145959.50
2023-03-20T10:35:56.338Z,145923.00
2023-03-20T10:38:42.976Z,145893.78
2023-03-20T10:41:17.319Z,146027.59
2023-03-20T10:43:47.359Z,145986.25
2023-03-20T10:46:27.411Z,145952.19
2023-03-20T10:49:00.646Z,146115.22
2023-03-20T10:52:04.690Z,146070.16
2023-03-20T10:54:35.321Z,146174.84
2023-03-20T10:57:06.658Z,146195.56
2023-03-20T10:59:38.837Z,146201.63
2023-03-20T11:02:13.403Z,146060.44
2023-03-20T11:04:40.927Z,146173.66
2023-03-20T11:07:27.757Z,146218.69
2023-03-20T11:10:04.559Z,146132.28
2023-03-20T11:12:37.570Z,146106.72
2023-03-20T11:15:26.388Z,146071.38
2023-03-20T11:17:55.969Z,145992.31
2023-03-20T11:20:23.882Z,146081.19
2023-03-20T11:22:58.718Z,146017.88
2023-03-20T11:25:39.791Z,145968.00
2023-03-20T11:28:21.811Z,146061.63
2023-03-20T11:31:04.123Z,146003.25
2023-03-20T11:33:36.652Z,146056.78
2023-03-20T11:36:11.632Z,146051.91
2023-03-20T11:38:46.063Z,145937.59
2023-03-20T11:41:28.722Z,145723.63
2023-03-20T11:43:56.169Z,145769.81
2023-03-20T11:46:24.884Z,145786.84
2023-03-20T11:49:20.781Z,145757.69
2023-03-20T11:51:48.327Z,145857.31
2023-03-20T11:54:22.485Z,145893.78
2023-03-20T11:56:55.584Z,145958.28
2023-03-20T11:59:27.133Z,146016.63
2023-03-20T12:01:56.111Z,146000.84
2023-03-20T12:04:37.812Z,146083.59
2023-03-20T12:07:24.359Z,146115.22
2023-03-20T12:10:03.677Z,146016.63
2023-03-20T12:12:43.650Z,145952.19
2023-03-20T12:15:13.516Z,145850.06
2023-03-20T12:17:40.769Z,145837.88
2023-03-20T12:20:27.399Z,145813.59
2023-03-20T12:23:05.007Z,145863.44
2023-03-20T12:25:54.085Z,145998.38
2023-03-20T12:28:41.380Z,146006.91
2023-03-20T12:31:21.164Z,146078.72
2023-03-20T12:33:51.372Z,146106.72
2023-03-20T12:36:28.816Z,146013.03
2023-03-20T12:38:56.128Z,146005.69
2023-03-20T12:41:30.800Z,146041.00
2023-03-20T12:44:10.876Z,146053.13
2023-03-20T12:46:48.409Z,145937.59
2023-03-20T12:49:18.403Z,146038.53
2023-03-20T12:52:05.925Z,146083.59
2023-03-20T12:54:39.079Z,146123.75
2023-03-20T12:57:25.154Z,146095.78
2023-03-20T13:00:03.450Z,145879.22
2023-03-20T13:02:37.841Z,145931.53
2023-03-20T13:05:26.516Z,146002.03
2023-03-20T13:08:18.278Z,145982.59
2023-03-20T13:11:00.483Z,145980.13
2023-03-20T13:13:41.259Z,145950.97
2023-03-20T13:16:49.166Z,145824.50
2023-03-20T13:19:28.048Z,145716.38
2023-03-20T13:22:01.111Z,145638.56
2023-03-20T13:24:28.178Z,145706.59
2023-03-20T13:27:07.864Z,145660.38
2023-03-20T13:29:43.639Z,145744.31
2023-03-20T13:32:13.348Z,145752.81
2023-03-20T13:34:56.565Z,145813.59
2023-03-20T13:37:35.638Z,145836.69
2023-03-20T13:40:30.267Z,145818.44
2023-03-20T13:43:08.201Z,145747.97
2023-03-20T13:45:41.289Z,145762.53
2023-03-20T13:48:24.180Z,145746.72
2023-03-20T13:51:09.424Z,145762.53
2023-03-20T13:54:05.673Z,145789.28
2023-03-20T13:56:45.257Z,145800.22
2023-03-20T13:59:30.867Z,145869.50
2023-03-20T14:02:28.722Z,145888.94
2023-03-20T14:05:07.586Z,145823.31
2023-03-20T14:07:42.038Z,145721.22
2023-03-20T14:10:21.208Z,145684.72
2023-03-20T14:12:57.209Z,145648.28
2023-03-20T14:15:31.913Z,145721.22
2023-03-20T14:18:05.504Z,145580.22
2023-03-20T14:20:37.016Z,145639.75
2023-03-20T14:23:05.854Z,145581.44
2023-03-20T14:25:40.660Z,145565.66
2023-03-20T14:28:25.666Z,145604.50
2023-03-20T14:31:13.666Z,145660.38
2023-03-20T14:33:44.177Z,145599.66
2023-03-20T14:36:18.718Z,145636.09
2023-03-20T14:39:17.816Z,145656.78
2023-03-20T14:42:05.212Z,145653.13
2023-03-20T14:44:50.264Z,145621.53
2023-03-20T14:47:46.515Z,145578.97
2023-03-20T14:50:26.622Z,145538.94
2023-03-20T14:53:03.761Z,145524.31
2023-03-20T14:55:34.149Z,145497.63
2023-03-20T14:58:25.229Z,145468.47
2023-03-20T15:00:52.346Z,145447.84
2023-03-20T15:03:19.487Z,145467.25
2023-03-20T15:05:47.462Z,145526.78
2023-03-20T15:08:23.485Z,145497.63
2023-03-20T15:10:55.154Z,145439.34
2023-03-20T15:13:24.672Z,145485.47
2023-03-20T15:16:05.198Z,145486.69
2023-03-20T15:18:41.017Z,145500.03
2023-03-20T15:21:36.317Z,145534.06
2023-03-20T15:24:04.057Z,145457.56
2023-03-20T15:26:33.703Z,145495.19
2023-03-20T15:29:04.334Z,145519.47
2023-03-20T15:31:34.565Z,145504.91
2023-03-20T15:34:06.661Z,145439.34
2023-03-20T15:36:36.965Z,145468.47
2023-03-20T15:39:29.093Z,145492.78
2023-03-20T15:42:01.394Z,145481.81
2023-03-20T15:44:36.403Z,145458.75
2023-03-20T15:47:12.078Z,145417.47
2023-03-20T15:49:41.451Z,145455.09
2023-03-20T15:52:28.750Z,145555.91
2023-03-20T15:54:58.347Z,145529.22
2023-03-20T15:57:35.248Z,145583.88
2023-03-20T16:00:10.093Z,145575.38
2023-03-20T16:02:37.710Z,145592.34
2023-03-20T16:05:11.580Z,145637.31
2023-03-20T16:07:38.621Z,145585.09
2023-03-20T16:10:22.148Z,145645.81
2023-03-20T16:12:56.334Z,145577.78
2023-03-20T16:15:31.392Z,145536.47
2023-03-20T16:18:01.755Z,145638.56
2023-03-20T16:20:36.050Z,145670.09
2023-03-20T16:23:07.098Z,145657.97
2023-03-20T16:25:35.623Z,145600.84
2023-03-20T16:28:07.070Z,145569.28
2023-03-20T16:30:35.232Z,145597.19
2023-03-20T16:33:09.297Z,145554.69
2023-03-20T16:35:47.539Z,145611.81
2023-03-20T16:38:26.720Z,145559.56
2023-03-20T16:40:55.995Z,145435.69
2023-03-20T16:43:30.489Z,145497.63
2023-03-20T16:46:03.718Z,145534.06
2023-03-20T16:48:33.967Z,145513.41
2023-03-20T16:51:10.943Z,145514.59
2023-03-20T16:53:44.465Z,145540.13
2023-03-20T16:56:14.905Z,145475.78
2023-03-20T16:58:45.697Z,145527.97
2023-03-20T17:01:21.747Z,145483.03
2023-03-20T17:03:57.542Z,145509.75
2023-03-20T17:06:35.668Z,145519.47
2023-03-20T17:09:20.443Z,145529.22
2023-03-20T17:12:27.030Z,145474.56
2023-03-20T17:14:54.203Z,145470.91
2023-03-20T17:17:22.344Z,145472.13
2023-03-20T17:19:53.102Z,145462.41
2023-03-20T17:22:25.155Z,145498.84
2023-03-20T17:24:52.662Z,145466.06
2023-03-20T17:27:21.269Z,145502.50
2023-03-20T17:29:51.301Z,145514.59
2023-03-20T17:32:26.128Z,145495.19
2023-03-20T17:34:53.152Z,145487.88
2023-03-20T17:37:29.426Z,145470.91
2023-03-20T17:39:57.078Z,145466.06
2023-03-20T17:42:26.849Z,145419.94
2023-03-20T17:44:54.104Z,145469.66
2023-03-20T17:47:27.334Z,145445.41
2023-03-20T17:49:55.065Z,145367.69
2023-03-20T17:52:25.295Z,145413.81
2023-03-20T17:54:52.901Z,145412.63
2023-03-20T17:57:35.826Z,145418.69
2023-03-20T18:00:07.455Z,145390.75
2023-03-20T18:02:34.678Z,145417.47
2023-03-20T18:05:01.762Z,145378.59
2023-03-20T18:07:28.851Z,145422.31
2023-03-20T18:09:55.855Z,145327.63
2023-03-20T18:12:22.990Z,145422.31
2023-03-20T18:14:50.097Z,145434.47
2023-03-20T18:17:17.238Z,145416.28
2023-03-20T18:19:44.893Z,145415.03
2023-03-20T18:22:12.441Z,145389.56
2023-03-20T18:24:42.191Z,145362.84
2023-03-20T18:27:11.539Z,145387.09
2023-03-20T18:29:38.565Z,145401.72
2023-03-20T18:32:05.710Z,145396.81
2023-03-20T18:34:33.215Z,145390.75
2023-03-20T18:37:00.468Z,145400.47
2023-03-20T18:39:27.594Z,145415.03
2023-03-20T18:41:54.639Z,145371.34
2023-03-20T18:44:21.852Z,145317.91
2023-03-20T18:46:49.276Z,145379.84
2023-03-20T18:49:20.259Z,145402.91
2023-03-20T18:51:47.426Z,145411.41
2023-03-20T18:54:14.756Z,145371.34
2023-03-20T18:56:43.065Z,145405.31
2023-03-20T18:59:12.616Z,145350.69
2023-03-20T19:01:39.923Z,145360.38
2023-03-20T19:04:07.154Z,145364.03
2023-03-20T19:06:34.312Z,145332.47
2023-03-20T19:09:04.811Z,145391.97
2023-03-20T19:11:32.056Z,145364.03
2023-03-20T19:13:59.228Z,145339.78
2023-03-20T19:16:35.849Z,145381.06
2023-03-20T19:19:06.743Z,145378.59
2023-03-20T19:21:34.784Z,145353.13
2023-03-20T19:24:04.790Z,145373.75
2023-03-20T19:26:33.596Z,145368.91
2023-03-20T19:29:02.909Z,145313.06
2023-03-20T19:31:30.352Z,145343.44
2023-03-20T19:33:57.436Z,145314.25
2023-03-20T19:36:28.440Z,145355.53
2023-03-20T19:38:57.112Z,145339.78
2023-03-20T19:41:24.752Z,145320.38
2023-03-20T19:43:54.139Z,145283.97
2023-03-20T19:46:41.154Z,145247.50
2023-03-20T19:49:20.736Z,145342.19
2023-03-20T19:51:48.920Z,145333.72
2023-03-20T19:54:16.550Z,145317.91
2023-03-20T19:56:43.655Z,145271.81
2023-03-20T19:59:10.928Z,145279.09
2023-03-20T20:01:38.099Z,145309.41
2023-03-20T20:04:05.278Z,145196.50
2023-03-20T20:06:33.235Z,145304.56
2023-03-20T20:09:01.616Z,145310.66
2023-03-20T20:11:29.113Z,145236.56
2023-03-20T20:14:24.263Z,145308.22
2023-03-20T20:16:45.252Z,145291.22
2023-03-20T20:19:12.729Z,145225.66
2023-03-20T20:24:27.772Z,145277.84
2023-03-20T20:27:14.809Z,145291.22
2023-03-20T20:29:45.836Z,145258.44
2023-03-20T20:32:13.001Z,145206.25
2023-03-20T20:38:14.001Z,145242.66
2023-03-20T20:40:16.979Z,145213.50
2023-03-20T20:42:47.531Z,145201.41
2023-03-20T20:45:15.299Z,145226.84
2023-03-20T20:47:44.811Z,145189.25
2023-03-20T20:50:14.580Z,145254.78
2023-03-20T20:52:42.068Z,145265.75
2023-03-20T20:55:22.473Z,145179.53
2023-03-20T20:57:54.236Z,145262.09
2023-03-20T21:00:37.242Z,145212.28
2023-03-20T21:03:16.072Z,145220.78
2023-03-20T21:05:43.457Z,145228.06
2023-03-20T21:08:11.917Z,145180.75
2023-03-20T21:10:39.773Z,145225.66
2023-03-20T21:13:08.135Z,145201.41
2023-03-20T21:15:35.473Z,145237.81
2023-03-20T21:18:02.791Z,145237.81
2023-03-20T21:20:31.762Z,145228.06
2023-03-20T21:22:59.203Z,145206.25
2023-03-20T21:25:39.214Z,145275.44
2023-03-20T21:28:08.049Z,145220.78
2023-03-20T21:41:20.489Z,145019.44
2023-03-20T21:43:56.109Z,144724.88
2023-03-20T21:47:04.120Z,144730.91
2023-03-20T21:58:56.398Z,144791.47
2023-03-20T22:07:37.548Z,144869.06
2023-03-20T22:11:03.521Z,144842.41
2023-03-20T22:22:13.753Z,144733.34
2023-03-20T22:25:20.336Z,144721.22
2023-03-20T22:28:22.388Z,144779.41
2023-03-20T22:37:40.780Z,144849.66
2023-03-20T22:40:30.518Z,145143.16
2023-03-20T22:42:55.845Z,145140.69
2023-03-20T22:45:06.726Z,145149.19
2023-03-20T22:47:34.867Z,145099.47
2023-03-20T22:50:02.413Z,145116.44
2023-03-20T22:52:45.625Z,145131.00
2023-03-20T22:55:17.143Z,145162.53
2023-03-20T22:57:56.238Z,145162.53
2023-03-20T23:00:32.268Z,145100.66
2023-03-20T23:03:13.859Z,145152.84
2023-03-20T23:05:44.509Z,145126.16
2023-03-20T23:08:12.084Z,145145.56
2023-03-20T23:10:44.005Z,145162.53
2023-03-20T23:13:12.055Z,145094.59
2023-03-20T23:15:39.322Z,145087.31
2023-03-20T23:18:07.102Z,145106.75
2023-03-20T23:20:34.220Z,145089.75
2023-03-20T23:23:01.314Z,145150.41
2023-03-20T23:25:38.766Z,145145.56
2023-03-20T23:28:09.388Z,145141.91
2023-03-20T23:30:45.292Z,145126.16
2023-03-20T23:33:16.845Z,145157.69
2023-03-20T23:35:43.932Z,145134.66
2023-03-20T23:38:11.013Z,145138.31
2023-03-20T23:40:38.309Z,145166.19
2023-03-20T23:43:05.519Z,145131.00
2023-03-20T23:45:32.618Z,145165.00
2023-03-20T23:47:59.719Z,145111.59
2023-03-20T23:50:33.982Z,145140.69
2023-03-20T23:53:17.482Z,145094.59
2023-03-20T23:55:47.521Z,145146.78
2023-03-20T23:58:15.686Z,145179.53
